메인 페이지
METAR-TAF:

METAR-TAF

공항 :

코피트나리 공항

쿠타이시, 조지아

위도: 42-10-35N, 경도: 042-28-57E, 고도: 68m

현재 날씨관측

예보는 20분 전, 20:00시(UTC)에 발표되었습니다.
5kt
온도 11°C
습도 82%
기압 1016 hPa
시정 10km 이상
1500m 미만 상공 구름 및 적란운 없음

METAR: UGKO 252000Z 09005KT CAVOK 11/08 Q1016 NOSIG

시각: 00:20 (20:20 UTC)

예보

예보는 3 시간 20분 전, 17:00시(UTC)에 발표되었습니다.
예보 대상 시간: 25일 18시부터 26일 18시까지 (UTC)
7kt
시정 10km 이상
1500m 미만 상공 구름 및 적란운 없음
전환 중
26일 04시부터 26일 07시까지 (UTC)
17kt

TAF: UGKO 251700Z 2518/2618 09007KT CAVOK TX29/2611Z TN11/2603Z BECMG 2604/2607 08017KT

4,000개 이상의 공항 관측 자료 및 예보 (METAR 및 TAF 보고).

지도상에서 검색 가능한 기상관측소가 노란 점과 빨간 점으로 표시되어 있습니다.

기상관측소 명을 보려면 표시 위로 마우스를 이동하세요.

날씨 관측과 예보를 보려면 클릭하세요.

지도 변경 : 확대하려면 엑스 표시가 있는 녹색 버튼, 축소하려면 빼기 표시가 있는 녹색 버튼, 다음 페이지의 지도를 보려면 녹색 화살표를 클릭하세요.


METAR-TAF: